sensor_id;sensor_type;location;lat;lon;timestamp;P1;durP1;ratioP1;P2;durP2;ratioP2
20855;SDS011;63058;49.424;8.420;2023-09-19T00:02:02;1.05;;;0.50;;
20855;SDS011;63058;49.424;8.420;2023-09-19T00:04:31;0.50;;;0.40;;
20855;SDS011;63058;49.424;8.420;2023-09-19T00:06:57;1.88;;;0.70;;
20855;SDS011;63058;49.424;8.420;2023-09-19T00:09:23;1.40;;;0.65;;
20855;SDS011;63058;49.424;8.420;2023-09-19T00:11:52;1.30;;;0.50;;
20855;SDS011;63058;49.424;8.420;2023-09-19T00:14:18;0.95;;;0.50;;
20855;SDS011;63058;49.424;8.420;2023-09-19T00:16:44;0.80;;;0.40;;
20855;SDS011;63058;49.424;8.420;2023-09-19T00:19:11;0.93;;;0.60;;
20855;SDS011;63058;49.424;8.420;2023-09-19T00:21:38;1.38;;;0.82;;
20855;SDS011;63058;49.424;8.420;2023-09-19T00:24:06;1.00;;;0.60;;
20855;SDS011;63058;49.424;8.420;2023-09-19T00:26:33;1.00;;;0.50;;
20855;SDS011;63058;49.424;8.420;2023-09-19T00:28:59;1.35;;;0.47;;
20855;SDS011;63058;49.424;8.420;2023-09-19T00:31:33;0.68;;;0.40;;
20855;SDS011;63058;49.424;8.420;2023-09-19T00:33:58;1.50;;;0.70;;
20855;SDS011;63058;49.424;8.420;2023-09-19T00:36:31;1.85;;;0.68;;
20855;SDS011;63058;49.424;8.420;2023-09-19T00:38:58;4.40;;;0.60;;
20855;SDS011;63058;49.424;8.420;2023-09-19T00:41:24;1.23;;;0.55;;
20855;SDS011;63058;49.424;8.420;2023-09-19T00:43:50;1.42;;;0.68;;
20855;SDS011;63058;49.424;8.420;2023-09-19T00:46:18;0.88;;;0.60;;
20855;SDS011;63058;49.424;8.420;2023-09-19T00:48:44;2.00;;;0.65;;
20855;SDS011;63058;49.424;8.420;2023-09-19T00:51:11;1.73;;;0.63;;
20855;SDS011;63058;49.424;8.420;2023-09-19T00:53:39;2.13;;;0.70;;
20855;SDS011;63058;49.424;8.420;2023-09-19T00:56:07;1.85;;;0.80;;
20855;SDS011;63058;49.424;8.420;2023-09-19T00:58:33;2.78;;;0.70;;
20855;SDS011;63058;49.424;8.420;2023-09-19T01:01:00;2.10;;;0.70;;
20855;SDS011;63058;49.424;8.420;2023-09-19T01:03:27;1.00;;;0.60;;
20855;SDS011;63058;49.424;8.420;2023-09-19T01:05:53;1.23;;;0.70;;
20855;SDS011;63058;49.424;8.420;2023-09-19T01:08:19;1.73;;;0.52;;
20855;SDS011;63058;49.424;8.420;2023-09-19T01:10:59;1.55;;;0.80;;
20855;SDS011;63058;49.424;8.420;2023-09-19T01:16:35;1.10;;;0.80;;
20855;SDS011;63058;49.424;8.420;2023-09-19T01:19:17;4.85;;;0.60;;
20855;SDS011;63058;49.424;8.420;2023-09-19T01:30:43;1.30;;;0.52;;
20855;SDS011;63058;49.424;8.420;2023-09-19T01:33:10;1.50;;;0.60;;
20855;SDS011;63058;49.424;8.420;2023-09-19T01:35:38;1.55;;;0.70;;
20855;SDS011;63058;49.424;8.420;2023-09-19T01:38:05;1.35;;;0.60;;
20855;SDS011;63058;49.424;8.420;2023-09-19T01:40:34;1.58;;;0.80;;
20855;SDS011;63058;49.424;8.420;2023-09-19T01:48:25;1.80;;;0.80;;
20855;SDS011;63058;49.424;8.420;2023-09-19T01:51:20;1.85;;;0.90;;
20855;SDS011;63058;49.424;8.420;2023-09-19T01:54:00;1.52;;;0.80;;
20855;SDS011;63058;49.424;8.420;2023-09-19T01:56:42;1.23;;;0.60;;
20855;SDS011;63058;49.424;8.420;2023-09-19T01:59:14;2.65;;;0.68;;
20855;SDS011;63058;49.424;8.420;2023-09-19T02:01:46;1.98;;;0.70;;
20855;SDS011;63058;49.424;8.420;2023-09-19T02:04:14;1.08;;;0.93;;
20855;SDS011;63058;49.424;8.420;2023-09-19T02:06:40;1.30;;;0.70;;
20855;SDS011;63058;49.424;8.420;2023-09-19T02:09:06;0.70;;;0.50;;
20855;SDS011;63058;49.424;8.420;2023-09-19T02:11:32;1.63;;;0.80;;
20855;SDS011;63058;49.424;8.420;2023-09-19T02:13:57;1.08;;;0.70;;
20855;SDS011;63058;49.424;8.420;2023-09-19T02:16:24;4.30;;;0.98;;
20855;SDS011;63058;49.424;8.420;2023-09-19T02:18:50;1.20;;;0.55;;
20855;SDS011;63058;49.424;8.420;2023-09-19T02:21:16;1.67;;;0.75;;
20855;SDS011;63058;49.424;8.420;2023-09-19T02:23:43;1.23;;;0.50;;
20855;SDS011;63058;49.424;8.420;2023-09-19T02:26:09;2.42;;;0.70;;
20855;SDS011;63058;49.424;8.420;2023-09-19T02:28:36;2.58;;;0.80;;
20855;SDS011;63058;49.424;8.420;2023-09-19T02:31:02;2.90;;;0.60;;
20855;SDS011;63058;49.424;8.420;2023-09-19T02:33:30;3.03;;;0.70;;
20855;SDS011;63058;49.424;8.420;2023-09-19T02:35:57;1.65;;;0.57;;
20855;SDS011;63058;49.424;8.420;2023-09-19T02:38:24;1.58;;;0.60;;
20855;SDS011;63058;49.424;8.420;2023-09-19T02:40:51;0.70;;;0.60;;
20855;SDS011;63058;49.424;8.420;2023-09-19T02:43:17;2.80;;;0.80;;
20855;SDS011;63058;49.424;8.420;2023-09-19T02:45:44;2.60;;;0.77;;
20855;SDS011;63058;49.424;8.420;2023-09-19T02:48:11;1.48;;;0.77;;
20855;SDS011;63058;49.424;8.420;2023-09-19T02:50:37;0.88;;;0.60;;
20855;SDS011;63058;49.424;8.420;2023-09-19T02:53:05;1.38;;;0.63;;
20855;SDS011;63058;49.424;8.420;2023-09-19T02:55:31;0.60;;;0.40;;
20855;SDS011;63058;49.424;8.420;2023-09-19T02:57:57;1.90;;;0.70;;
20855;SDS011;63058;49.424;8.420;2023-09-19T03:00:23;1.10;;;0.50;;
20855;SDS011;63058;49.424;8.420;2023-09-19T03:02:55;1.02;;;0.52;;
20855;SDS011;63058;49.424;8.420;2023-09-19T03:05:22;1.13;;;0.73;;
20855;SDS011;63058;49.424;8.420;2023-09-19T03:07:51;1.42;;;0.60;;
20855;SDS011;63058;49.424;8.420;2023-09-19T03:10:17;5.75;;;2.03;;
20855;SDS011;63058;49.424;8.420;2023-09-19T03:12:44;1.70;;;0.63;;
20855;SDS011;63058;49.424;8.420;2023-09-19T03:15:09;0.85;;;0.50;;
20855;SDS011;63058;49.424;8.420;2023-09-19T03:17:35;0.68;;;0.50;;
20855;SDS011;63058;49.424;8.420;2023-09-19T03:20:02;1.35;;;0.70;;
20855;SDS011;63058;49.424;8.420;2023-09-19T03:22:34;1.80;;;0.80;;
20855;SDS011;63058;49.424;8.420;2023-09-19T03:25:00;1.33;;;0.50;;
20855;SDS011;63058;49.424;8.420;2023-09-19T03:27:26;1.30;;;0.57;;
20855;SDS011;63058;49.424;8.420;2023-09-19T03:29:52;0.90;;;0.70;;
20855;SDS011;63058;49.424;8.420;2023-09-19T03:32:18;2.65;;;0.95;;
20855;SDS011;63058;49.424;8.420;2023-09-19T03:34:44;1.88;;;0.90;;
20855;SDS011;63058;49.424;8.420;2023-09-19T03:37:10;2.58;;;0.60;;
20855;SDS011;63058;49.424;8.420;2023-09-19T03:39:35;2.85;;;0.70;;
20855;SDS011;63058;49.424;8.420;2023-09-19T03:42:01;1.92;;;0.85;;
20855;SDS011;63058;49.424;8.420;2023-09-19T03:44:29;1.02;;;0.73;;
20855;SDS011;63058;49.424;8.420;2023-09-19T03:46:56;1.13;;;0.70;;
20855;SDS011;63058;49.424;8.420;2023-09-19T03:49:22;1.30;;;0.80;;
20855;SDS011;63058;49.424;8.420;2023-09-19T03:51:48;1.73;;;1.00;;
20855;SDS011;63058;49.424;8.420;2023-09-19T03:54:13;3.25;;;1.10;;
20855;SDS011;63058;49.424;8.420;2023-09-19T03:56:39;1.90;;;1.02;;
20855;SDS011;63058;49.424;8.420;2023-09-19T03:59:04;1.77;;;0.90;;
20855;SDS011;63058;49.424;8.420;2023-09-19T04:01:30;2.13;;;1.17;;
20855;SDS011;63058;49.424;8.420;2023-09-19T04:03:58;2.97;;;1.25;;
20855;SDS011;63058;49.424;8.420;2023-09-19T04:06:32;2.53;;;1.00;;
20855;SDS011;63058;49.424;8.420;2023-09-19T04:09:00;3.90;;;1.20;;
20855;SDS011;63058;49.424;8.420;2023-09-19T04:11:26;5.15;;;1.30;;
20855;SDS011;63058;49.424;8.420;2023-09-19T04:13:52;2.78;;;1.27;;
20855;SDS011;63058;49.424;8.420;2023-09-19T04:16:18;3.25;;;1.75;;
20855;SDS011;63058;49.424;8.420;2023-09-19T04:18:44;2.58;;;1.30;;
20855;SDS011;63058;49.424;8.420;2023-09-19T04:21:10;2.00;;;1.10;;
20855;SDS011;63058;49.424;8.420;2023-09-19T04:23:36;1.45;;;1.10;;
20855;SDS011;63058;49.424;8.420;2023-09-19T04:26:01;4.65;;;1.30;;
20855;SDS011;63058;49.424;8.420;2023-09-19T04:28:29;4.60;;;1.48;;
20855;SDS011;63058;49.424;8.420;2023-09-19T04:30:56;3.28;;;1.25;;
20855;SDS011;63058;49.424;8.420;2023-09-19T04:33:22;2.08;;;1.20;;
20855;SDS011;63058;49.424;8.420;2023-09-19T04:35:51;3.88;;;1.00;;
20855;SDS011;63058;49.424;8.420;2023-09-19T04:38:17;3.60;;;1.10;;
20855;SDS011;63058;49.424;8.420;2023-09-19T04:40:44;1.75;;;1.00;;
20855;SDS011;63058;49.424;8.420;2023-09-19T04:43:10;2.25;;;1.15;;
20855;SDS011;63058;49.424;8.420;2023-09-19T04:45:35;3.35;;;1.20;;
20855;SDS011;63058;49.424;8.420;2023-09-19T04:48:04;2.90;;;1.20;;
20855;SDS011;63058;49.424;8.420;2023-09-19T04:50:31;1.77;;;1.00;;
20855;SDS011;63058;49.424;8.420;2023-09-19T04:52:59;2.28;;;1.00;;
20855;SDS011;63058;49.424;8.420;2023-09-19T04:55:25;1.75;;;0.95;;
20855;SDS011;63058;49.424;8.420;2023-09-19T04:57:51;3.40;;;1.10;;
20855;SDS011;63058;49.424;8.420;2023-09-19T05:00:18;3.70;;;1.08;;
20855;SDS011;63058;49.424;8.420;2023-09-19T05:02:51;2.28;;;0.90;;
20855;SDS011;63058;49.424;8.420;2023-09-19T05:05:17;1.95;;;0.93;;
20855;SDS011;63058;49.424;8.420;2023-09-19T05:07:44;2.08;;;1.10;;
20855;SDS011;63058;49.424;8.420;2023-09-19T05:10:10;2.72;;;0.95;;
20855;SDS011;63058;49.424;8.420;2023-09-19T05:12:37;1.83;;;0.90;;
20855;SDS011;63058;49.424;8.420;2023-09-19T05:15:04;2.97;;;0.90;;
20855;SDS011;63058;49.424;8.420;2023-09-19T05:17:32;3.30;;;1.10;;
20855;SDS011;63058;49.424;8.420;2023-09-19T05:19:58;2.25;;;1.08;;
20855;SDS011;63058;49.424;8.420;2023-09-19T05:22:28;3.60;;;0.93;;
20855;SDS011;63058;49.424;8.420;2023-09-19T05:24:54;1.42;;;0.98;;
20855;SDS011;63058;49.424;8.420;2023-09-19T05:27:20;1.50;;;0.90;;
20855;SDS011;63058;49.424;8.420;2023-09-19T05:29:46;1.85;;;1.15;;
20855;SDS011;63058;49.424;8.420;2023-09-19T05:32:12;1.95;;;1.00;;
20855;SDS011;63058;49.424;8.420;2023-09-19T05:34:38;3.88;;;1.00;;
20855;SDS011;63058;49.424;8.420;2023-09-19T05:37:04;3.10;;;0.93;;
20855;SDS011;63058;49.424;8.420;2023-09-19T05:39:32;3.60;;;1.08;;
20855;SDS011;63058;49.424;8.420;2023-09-19T05:41:58;1.98;;;0.90;;
20855;SDS011;63058;49.424;8.420;2023-09-19T05:44:25;1.13;;;1.00;;
20855;SDS011;63058;49.424;8.420;2023-09-19T05:46:51;3.35;;;1.20;;
20855;SDS011;63058;49.424;8.420;2023-09-19T05:49:16;1.48;;;0.90;;
20855;SDS011;63058;49.424;8.420;2023-09-19T05:51:42;2.30;;;0.90;;
20855;SDS011;63058;49.424;8.420;2023-09-19T05:54:08;1.50;;;0.85;;
20855;SDS011;63058;49.424;8.420;2023-09-19T05:56:34;2.47;;;1.00;;
20855;SDS011;63058;49.424;8.420;2023-09-19T05:58:59;2.75;;;0.90;;
20855;SDS011;63058;49.424;8.420;2023-09-19T06:01:25;2.10;;;0.98;;
20855;SDS011;63058;49.424;8.420;2023-09-19T06:03:52;2.35;;;1.10;;
20855;SDS011;63058;49.424;8.420;2023-09-19T06:06:18;2.65;;;1.15;;
20855;SDS011;63058;49.424;8.420;2023-09-19T06:08:44;2.38;;;1.00;;
20855;SDS011;63058;49.424;8.420;2023-09-19T06:11:09;1.30;;;0.95;;
20855;SDS011;63058;49.424;8.420;2023-09-19T06:13:35;4.65;;;1.20;;
20855;SDS011;63058;49.424;8.420;2023-09-19T06:16:04;2.42;;;1.02;;
20855;SDS011;63058;49.424;8.420;2023-09-19T06:18:30;1.80;;;0.90;;
20855;SDS011;63058;49.424;8.420;2023-09-19T06:20:58;2.10;;;1.10;;
20855;SDS011;63058;49.424;8.420;2023-09-19T06:23:24;2.10;;;1.02;;
20855;SDS011;63058;49.424;8.420;2023-09-19T06:25:51;2.60;;;0.85;;
20855;SDS011;63058;49.424;8.420;2023-09-19T06:28:18;3.40;;;0.80;;
20855;SDS011;63058;49.424;8.420;2023-09-19T06:30:48;4.38;;;1.15;;
20855;SDS011;63058;49.424;8.420;2023-09-19T06:33:14;3.75;;;0.90;;
20855;SDS011;63058;49.424;8.420;2023-09-19T06:35:40;3.90;;;1.33;;
20855;SDS011;63058;49.424;8.420;2023-09-19T06:38:07;4.00;;;1.20;;
20855;SDS011;63058;49.424;8.420;2023-09-19T06:40:33;3.53;;;1.10;;
20855;SDS011;63058;49.424;8.420;2023-09-19T06:42:59;2.42;;;1.10;;
20855;SDS011;63058;49.424;8.420;2023-09-19T06:45:27;4.90;;;1.05;;
20855;SDS011;63058;49.424;8.420;2023-09-19T06:47:52;3.05;;;1.40;;
20855;SDS011;63058;49.424;8.420;2023-09-19T06:50:20;2.88;;;1.25;;
20855;SDS011;63058;49.424;8.420;2023-09-19T06:52:50;2.28;;;1.05;;
20855;SDS011;63058;49.424;8.420;2023-09-19T06:55:18;4.57;;;1.30;;
20855;SDS011;63058;49.424;8.420;2023-09-19T06:57:48;3.90;;;1.23;;
20855;SDS011;63058;49.424;8.420;2023-09-19T07:00:13;5.35;;;1.13;;
20855;SDS011;63058;49.424;8.420;2023-09-19T07:05:21;5.53;;;1.10;;
20855;SDS011;63058;49.424;8.420;2023-09-19T07:07:47;2.78;;;1.25;;
20855;SDS011;63058;49.424;8.420;2023-09-19T07:10:12;1.75;;;0.90;;
20855;SDS011;63058;49.424;8.420;2023-09-19T07:12:38;1.75;;;0.90;;
20855;SDS011;63058;49.424;8.420;2023-09-19T07:15:04;2.55;;;1.30;;
20855;SDS011;63058;49.424;8.420;2023-09-19T07:17:31;2.40;;;1.10;;
20855;SDS011;63058;49.424;8.420;2023-09-19T07:19:58;2.17;;;1.17;;
20855;SDS011;63058;49.424;8.420;2023-09-19T07:22:23;2.58;;;1.02;;
20855;SDS011;63058;49.424;8.420;2023-09-19T07:24:51;2.58;;;1.17;;
20855;SDS011;63058;49.424;8.420;2023-09-19T07:27:17;1.58;;;0.95;;
20855;SDS011;63058;49.424;8.420;2023-09-19T07:29:43;1.20;;;0.90;;
20855;SDS011;63058;49.424;8.420;2023-09-19T07:32:09;2.80;;;1.40;;
20855;SDS011;63058;49.424;8.420;2023-09-19T07:34:36;5.93;;;1.50;;
20855;SDS011;63058;49.424;8.420;2023-09-19T07:37:04;2.33;;;1.23;;
20855;SDS011;63058;49.424;8.420;2023-09-19T07:39:29;2.47;;;0.98;;
20855;SDS011;63058;49.424;8.420;2023-09-19T07:41:55;3.53;;;1.20;;
20855;SDS011;63058;49.424;8.420;2023-09-19T07:44:21;3.10;;;1.10;;
20855;SDS011;63058;49.424;8.420;2023-09-19T07:46:47;2.03;;;1.10;;
20855;SDS011;63058;49.424;8.420;2023-09-19T07:49:16;1.73;;;1.00;;
20855;SDS011;63058;49.424;8.420;2023-09-19T07:51:42;4.00;;;1.30;;
20855;SDS011;63058;49.424;8.420;2023-09-19T07:54:11;1.73;;;1.10;;
20855;SDS011;63058;49.424;8.420;2023-09-19T07:56:38;1.65;;;1.00;;
20855;SDS011;63058;49.424;8.420;2023-09-19T07:59:03;2.58;;;0.90;;
20855;SDS011;63058;49.424;8.420;2023-09-19T08:01:29;3.08;;;0.88;;
20855;SDS011;63058;49.424;8.420;2023-09-19T08:03:54;3.47;;;1.10;;
20855;SDS011;63058;49.424;8.420;2023-09-19T08:06:20;2.65;;;1.00;;
20855;SDS011;63058;49.424;8.420;2023-09-19T08:08:46;3.30;;;1.20;;
20855;SDS011;63058;49.424;8.420;2023-09-19T08:11:11;4.00;;;1.08;;
20855;SDS011;63058;49.424;8.420;2023-09-19T08:13:40;2.90;;;1.20;;
20855;SDS011;63058;49.424;8.420;2023-09-19T08:16:11;3.03;;;1.13;;
20855;SDS011;63058;49.424;8.420;2023-09-19T08:18:38;6.72;;;1.40;;
20855;SDS011;63058;49.424;8.420;2023-09-19T08:21:07;2.78;;;1.08;;
20855;SDS011;63058;49.424;8.420;2023-09-19T08:23:36;2.63;;;1.38;;
20855;SDS011;63058;49.424;8.420;2023-09-19T08:26:03;2.50;;;1.30;;
20855;SDS011;63058;49.424;8.420;2023-09-19T08:28:31;4.28;;;1.00;;
20855;SDS011;63058;49.424;8.420;2023-09-19T08:31:01;2.83;;;0.90;;
20855;SDS011;63058;49.424;8.420;2023-09-19T08:33:31;3.30;;;0.93;;
20855;SDS011;63058;49.424;8.420;2023-09-19T08:36:01;3.42;;;1.08;;
20855;SDS011;63058;49.424;8.420;2023-09-19T08:38:30;2.15;;;1.02;;
20855;SDS011;63058;49.424;8.420;2023-09-19T08:40:58;2.13;;;1.00;;
20855;SDS011;63058;49.424;8.420;2023-09-19T08:43:30;2.83;;;1.30;;
20855;SDS011;63058;49.424;8.420;2023-09-19T08:46:20;4.30;;;1.30;;
20855;SDS011;63058;49.424;8.420;2023-09-19T08:48:54;1.90;;;1.10;;
20855;SDS011;63058;49.424;8.420;2023-09-19T08:51:30;1.85;;;1.13;;
20855;SDS011;63058;49.424;8.420;2023-09-19T08:56:36;2.22;;;1.20;;
20855;SDS011;63058;49.424;8.420;2023-09-19T08:59:04;1.63;;;1.10;;
20855;SDS011;63058;49.424;8.420;2023-09-19T09:01:33;4.35;;;1.02;;
20855;SDS011;63058;49.424;8.420;2023-09-19T09:04:01;4.20;;;1.00;;
20855;SDS011;63058;49.424;8.420;2023-09-19T09:06:27;1.10;;;0.70;;
20855;SDS011;63058;49.424;8.420;2023-09-19T09:08:54;3.17;;;0.80;;
20855;SDS011;63058;49.424;8.420;2023-09-19T09:11:19;3.22;;;1.15;;
20855;SDS011;63058;49.424;8.420;2023-09-19T09:13:46;2.35;;;1.05;;
20855;SDS011;63058;49.424;8.420;2023-09-19T09:16:13;1.60;;;0.73;;
20855;SDS011;63058;49.424;8.420;2023-09-19T09:18:42;2.35;;;0.82;;
20855;SDS011;63058;49.424;8.420;2023-09-19T09:21:09;2.28;;;0.90;;
20855;SDS011;63058;49.424;8.420;2023-09-19T09:23:35;4.20;;;1.13;;
20855;SDS011;63058;49.424;8.420;2023-09-19T09:26:00;2.67;;;0.90;;
20855;SDS011;63058;49.424;8.420;2023-09-19T09:28:31;3.28;;;0.80;;
20855;SDS011;63058;49.424;8.420;2023-09-19T09:30:58;3.83;;;1.08;;
20855;SDS011;63058;49.424;8.420;2023-09-19T09:33:24;2.67;;;0.85;;
20855;SDS011;63058;49.424;8.420;2023-09-19T09:35:57;2.55;;;0.88;;
20855;SDS011;63058;49.424;8.420;2023-09-19T09:38:28;2.53;;;0.80;;
20855;SDS011;63058;49.424;8.420;2023-09-19T09:41:10;3.03;;;1.08;;
20855;SDS011;63058;49.424;8.420;2023-09-19T09:43:40;4.18;;;1.20;;
20855;SDS011;63058;49.424;8.420;2023-09-19T09:46:21;4.05;;;0.90;;
20855;SDS011;63058;49.424;8.420;2023-09-19T09:49:05;3.22;;;1.02;;
20855;SDS011;63058;49.424;8.420;2023-09-19T09:51:49;2.90;;;0.90;;
20855;SDS011;63058;49.424;8.420;2023-09-19T09:54:24;3.45;;;1.00;;
20855;SDS011;63058;49.424;8.420;2023-09-19T09:57:01;2.00;;;1.00;;
20855;SDS011;63058;49.424;8.420;2023-09-19T10:05:03;3.63;;;1.00;;
20855;SDS011;63058;49.424;8.420;2023-09-19T10:07:39;3.78;;;0.85;;
20855;SDS011;63058;49.424;8.420;2023-09-19T10:10:14;2.17;;;0.80;;
20855;SDS011;63058;49.424;8.420;2023-09-19T10:12:54;3.47;;;0.98;;
20855;SDS011;63058;49.424;8.420;2023-09-19T10:15:27;4.60;;;0.98;;
20855;SDS011;63058;49.424;8.420;2023-09-19T10:18:00;3.80;;;0.77;;
20855;SDS011;63058;49.424;8.420;2023-09-19T10:20:29;2.42;;;1.10;;
20855;SDS011;63058;49.424;8.420;2023-09-19T10:22:55;4.20;;;1.15;;
20855;SDS011;63058;49.424;8.420;2023-09-19T10:25:29;3.55;;;0.90;;
20855;SDS011;63058;49.424;8.420;2023-09-19T10:27:55;2.92;;;1.00;;
20855;SDS011;63058;49.424;8.420;2023-09-19T10:30:25;3.58;;;1.17;;
20855;SDS011;63058;49.424;8.420;2023-09-19T10:33:02;3.58;;;1.00;;
20855;SDS011;63058;49.424;8.420;2023-09-19T10:35:29;3.25;;;1.08;;
20855;SDS011;63058;49.424;8.420;2023-09-19T10:37:57;4.97;;;1.05;;
20855;SDS011;63058;49.424;8.420;2023-09-19T10:40:26;1.77;;;0.70;;
20855;SDS011;63058;49.424;8.420;2023-09-19T10:43:02;2.58;;;0.90;;
20855;SDS011;63058;49.424;8.420;2023-09-19T10:45:30;4.03;;;0.90;;
20855;SDS011;63058;49.424;8.420;2023-09-19T10:47:57;1.98;;;0.90;;
20855;SDS011;63058;49.424;8.420;2023-09-19T10:50:23;3.45;;;1.02;;
20855;SDS011;63058;49.424;8.420;2023-09-19T10:52:50;1.65;;;0.80;;
20855;SDS011;63058;49.424;8.420;2023-09-19T10:55:23;2.97;;;0.65;;
20855;SDS011;63058;49.424;8.420;2023-09-19T10:57:53;2.67;;;1.00;;
20855;SDS011;63058;49.424;8.420;2023-09-19T11:00:19;3.40;;;0.88;;
20855;SDS011;63058;49.424;8.420;2023-09-19T11:05:59;1.77;;;0.93;;
20855;SDS011;63058;49.424;8.420;2023-09-19T11:11:40;1.77;;;0.80;;
20855;SDS011;63058;49.424;8.420;2023-09-19T11:22:22;1.92;;;1.00;;
20855;SDS011;63058;49.424;8.420;2023-09-19T11:24:51;3.67;;;0.93;;
20855;SDS011;63058;49.424;8.420;2023-09-19T11:27:17;2.70;;;0.85;;
20855;SDS011;63058;49.424;8.420;2023-09-19T11:29:43;1.52;;;0.80;;
20855;SDS011;63058;49.424;8.420;2023-09-19T11:32:09;3.05;;;0.90;;
20855;SDS011;63058;49.424;8.420;2023-09-19T11:37:01;1.63;;;0.73;;
20855;SDS011;63058;49.424;8.420;2023-09-19T11:39:29;2.30;;;0.85;;
20855;SDS011;63058;49.424;8.420;2023-09-19T11:41:55;1.63;;;0.68;;
20855;SDS011;63058;49.424;8.420;2023-09-19T11:46:59;2.20;;;0.73;;
20855;SDS011;63058;49.424;8.420;2023-09-19T11:49:28;1.80;;;0.95;;
20855;SDS011;63058;49.424;8.420;2023-09-19T11:51:56;2.58;;;1.02;;
20855;SDS011;63058;49.424;8.420;2023-09-19T11:54:25;2.90;;;0.80;;
20855;SDS011;63058;49.424;8.420;2023-09-19T11:56:56;3.38;;;1.08;;
20855;SDS011;63058;49.424;8.420;2023-09-19T11:59:24;5.43;;;1.00;;
20855;SDS011;63058;49.424;8.420;2023-09-19T12:01:54;2.42;;;0.80;;
20855;SDS011;63058;49.424;8.420;2023-09-19T12:04:43;3.67;;;0.88;;
20855;SDS011;63058;49.424;8.420;2023-09-19T12:07:14;4.55;;;0.77;;
20855;SDS011;63058;49.424;8.420;2023-09-19T12:09:41;2.10;;;0.80;;
20855;SDS011;63058;49.424;8.420;2023-09-19T12:12:09;1.52;;;0.70;;
20855;SDS011;63058;49.424;8.420;2023-09-19T12:14:37;3.00;;;0.70;;
20855;SDS011;63058;49.424;8.420;2023-09-19T12:17:04;2.10;;;1.00;;
20855;SDS011;63058;49.424;8.420;2023-09-19T12:19:30;1.95;;;1.00;;
20855;SDS011;63058;49.424;8.420;2023-09-19T12:24:29;1.63;;;0.75;;
20855;SDS011;63058;49.424;8.420;2023-09-19T12:27:05;1.85;;;0.80;;
20855;SDS011;63058;49.424;8.420;2023-09-19T12:29:52;1.85;;;0.73;;
20855;SDS011;63058;49.424;8.420;2023-09-19T12:32:33;1.58;;;0.70;;
20855;SDS011;63058;49.424;8.420;2023-09-19T12:35:00;4.00;;;1.10;;
20855;SDS011;63058;49.424;8.420;2023-09-19T12:37:32;3.17;;;0.90;;
20855;SDS011;63058;49.424;8.420;2023-09-19T12:40:05;2.47;;;0.80;;
20855;SDS011;63058;49.424;8.420;2023-09-19T12:42:50;2.88;;;0.88;;
20855;SDS011;63058;49.424;8.420;2023-09-19T12:45:18;1.30;;;0.50;;
20855;SDS011;63058;49.424;8.420;2023-09-19T12:51:08;3.50;;;0.80;;
20855;SDS011;63058;49.424;8.420;2023-09-19T12:53:41;2.03;;;0.73;;
20855;SDS011;63058;49.424;8.420;2023-09-19T12:56:08;3.90;;;1.13;;
20855;SDS011;63058;49.424;8.420;2023-09-19T12:58:50;3.90;;;0.90;;
20855;SDS011;63058;49.424;8.420;2023-09-19T13:01:28;2.78;;;0.77;;
20855;SDS011;63058;49.424;8.420;2023-09-19T13:06:54;2.50;;;0.88;;
20855;SDS011;63058;49.424;8.420;2023-09-19T13:09:25;2.60;;;0.95;;
20855;SDS011;63058;49.424;8.420;2023-09-19T13:12:04;1.25;;;0.70;;
20855;SDS011;63058;49.424;8.420;2023-09-19T13:15:06;2.10;;;1.00;;
20855;SDS011;63058;49.424;8.420;2023-09-19T13:17:44;5.38;;;1.05;;
20855;SDS011;63058;49.424;8.420;2023-09-19T13:20:26;2.53;;;0.80;;
20855;SDS011;63058;49.424;8.420;2023-09-19T13:22:53;1.02;;;0.73;;
20855;SDS011;63058;49.424;8.420;2023-09-19T13:25:35;2.80;;;0.85;;
20855;SDS011;63058;49.424;8.420;2023-09-19T13:28:05;0.80;;;0.60;;
20855;SDS011;63058;49.424;8.420;2023-09-19T13:30:30;2.33;;;0.60;;
20855;SDS011;63058;49.424;8.420;2023-09-19T13:33:05;1.88;;;0.60;;
20855;SDS011;63058;49.424;8.420;2023-09-19T13:35:32;1.40;;;0.52;;
20855;SDS011;63058;49.424;8.420;2023-09-19T13:37:58;1.52;;;0.70;;
20855;SDS011;63058;49.424;8.420;2023-09-19T13:40:24;1.35;;;0.60;;
20855;SDS011;63058;49.424;8.420;2023-09-19T13:42:55;3.55;;;0.70;;
20855;SDS011;63058;49.424;8.420;2023-09-19T13:45:21;2.00;;;0.80;;
20855;SDS011;63058;49.424;8.420;2023-09-19T13:47:49;1.77;;;0.80;;
20855;SDS011;63058;49.424;8.420;2023-09-19T13:50:15;1.88;;;0.80;;
20855;SDS011;63058;49.424;8.420;2023-09-19T13:52:43;2.65;;;0.70;;
20855;SDS011;63058;49.424;8.420;2023-09-19T13:55:09;3.13;;;1.00;;
20855;SDS011;63058;49.424;8.420;2023-09-19T13:57:35;2.17;;;0.60;;
20855;SDS011;63058;49.424;8.420;2023-09-19T14:00:00;1.52;;;0.70;;
20855;SDS011;63058;49.424;8.420;2023-09-19T14:02:26;1.70;;;0.55;;
20855;SDS011;63058;49.424;8.420;2023-09-19T14:04:51;2.28;;;0.70;;
20855;SDS011;63058;49.424;8.420;2023-09-19T14:07:17;3.28;;;0.65;;
20855;SDS011;63058;49.424;8.420;2023-09-19T14:09:45;1.92;;;0.57;;
20855;SDS011;63058;49.424;8.420;2023-09-19T14:12:11;1.42;;;0.60;;
20855;SDS011;63058;49.424;8.420;2023-09-19T14:14:37;3.33;;;0.80;;
20855;SDS011;63058;49.424;8.420;2023-09-19T14:17:05;1.42;;;0.60;;
20855;SDS011;63058;49.424;8.420;2023-09-19T14:19:32;2.42;;;0.93;;
20855;SDS011;63058;49.424;8.420;2023-09-19T14:21:58;2.35;;;0.70;;
20855;SDS011;63058;49.424;8.420;2023-09-19T14:24:24;1.02;;;0.63;;
20855;SDS011;63058;49.424;8.420;2023-09-19T14:26:49;0.95;;;0.57;;
20855;SDS011;63058;49.424;8.420;2023-09-19T14:29:15;2.08;;;0.70;;
20855;SDS011;63058;49.424;8.420;2023-09-19T14:31:41;1.67;;;0.70;;
20855;SDS011;63058;49.424;8.420;2023-09-19T14:34:07;0.90;;;0.65;;
20855;SDS011;63058;49.424;8.420;2023-09-19T14:36:37;2.70;;;0.80;;
20855;SDS011;63058;49.424;8.420;2023-09-19T14:39:06;3.55;;;0.70;;
20855;SDS011;63058;49.424;8.420;2023-09-19T14:41:33;1.70;;;0.80;;
20855;SDS011;63058;49.424;8.420;2023-09-19T14:43:59;3.47;;;0.95;;
20855;SDS011;63058;49.424;8.420;2023-09-19T14:46:24;1.10;;;0.80;;
20855;SDS011;63058;49.424;8.420;2023-09-19T14:48:53;3.15;;;0.90;;
20855;SDS011;63058;49.424;8.420;2023-09-19T14:51:18;0.75;;;0.50;;
20855;SDS011;63058;49.424;8.420;2023-09-19T14:53:45;1.45;;;0.77;;
20855;SDS011;63058;49.424;8.420;2023-09-19T14:56:12;0.90;;;0.70;;
20855;SDS011;63058;49.424;8.420;2023-09-19T14:58:40;1.55;;;0.70;;
20855;SDS011;63058;49.424;8.420;2023-09-19T15:01:10;1.90;;;0.85;;
20855;SDS011;63058;49.424;8.420;2023-09-19T15:03:38;2.30;;;0.90;;
20855;SDS011;63058;49.424;8.420;2023-09-19T15:06:05;1.42;;;0.68;;
20855;SDS011;63058;49.424;8.420;2023-09-19T15:08:34;1.05;;;0.70;;
20855;SDS011;63058;49.424;8.420;2023-09-19T15:11:03;1.45;;;0.70;;
20855;SDS011;63058;49.424;8.420;2023-09-19T15:13:35;2.47;;;0.80;;
20855;SDS011;63058;49.424;8.420;2023-09-19T15:16:06;1.42;;;0.80;;
20855;SDS011;63058;49.424;8.420;2023-09-19T15:18:35;1.83;;;0.75;;
20855;SDS011;63058;49.424;8.420;2023-09-19T15:21:06;1.00;;;0.70;;
20855;SDS011;63058;49.424;8.420;2023-09-19T15:23:34;1.60;;;0.70;;
20855;SDS011;63058;49.424;8.420;2023-09-19T15:26:01;0.82;;;0.60;;
20855;SDS011;63058;49.424;8.420;2023-09-19T15:28:31;1.10;;;0.63;;
20855;SDS011;63058;49.424;8.420;2023-09-19T15:31:02;1.92;;;0.65;;
20855;SDS011;63058;49.424;8.420;2023-09-19T15:33:32;3.20;;;0.60;;
20855;SDS011;63058;49.424;8.420;2023-09-19T15:36:04;2.10;;;0.70;;
20855;SDS011;63058;49.424;8.420;2023-09-19T15:41:22;1.30;;;0.60;;
20855;SDS011;63058;49.424;8.420;2023-09-19T15:43:48;0.93;;;0.50;;
20855;SDS011;63058;49.424;8.420;2023-09-19T15:46:13;1.70;;;0.70;;
20855;SDS011;63058;49.424;8.420;2023-09-19T15:48:40;2.40;;;0.80;;
20855;SDS011;63058;49.424;8.420;2023-09-19T15:51:06;1.55;;;0.60;;
20855;SDS011;63058;49.424;8.420;2023-09-19T15:53:44;2.42;;;0.60;;
20855;SDS011;63058;49.424;8.420;2023-09-19T15:56:12;1.10;;;0.60;;